createdAt,value
2022-10-28T00:09:32.507Z,16.1
2022-10-28T00:27:12.251Z,17.4
2022-10-28T00:42:23.619Z,17.4
2022-10-28T00:57:32.619Z,17.5
2022-10-28T01:12:42.331Z,17.5
2022-10-28T01:27:51.992Z,17.9
2022-10-28T01:43:01.717Z,18.3
2022-10-28T01:58:14.458Z,18.4
2022-10-28T02:13:24.954Z,19
2022-10-28T02:28:36.261Z,18.3
2022-10-28T02:43:45.409Z,17.8
2022-10-28T02:58:54.789Z,17.8
2022-10-28T03:14:05.198Z,17.9
2022-10-28T03:29:14.275Z,17.6
2022-10-28T03:44:23.964Z,17.5
2022-10-28T03:59:38.816Z,17
2022-10-28T04:14:48.685Z,16.6
2022-10-28T04:29:58.043Z,16.5
2022-10-28T04:45:07.489Z,16.4
2022-10-28T05:00:19.131Z,16.4
2022-10-28T05:15:32.225Z,16.3
2022-10-28T05:30:41.724Z,16.2
2022-10-28T05:45:51.225Z,16.1
2022-10-28T06:01:00.571Z,16
2022-10-28T06:16:08.455Z,16
2022-10-28T06:31:18.507Z,16
2022-10-28T06:46:28.295Z,16.1
2022-10-28T07:01:42.615Z,16.4
2022-10-28T07:16:52.553Z,16.6
2022-10-28T07:32:04.131Z,16.9
2022-10-28T07:47:14.237Z,17
2022-10-28T08:02:24.232Z,17.2
2022-10-28T08:17:36.949Z,17.6
2022-10-28T08:32:47.007Z,18
2022-10-28T08:47:57.248Z,18.2
2022-10-28T09:03:08.889Z,18.5
2022-10-28T09:18:19.356Z,18.8
2022-10-28T09:33:36.481Z,19.1
2022-10-28T09:48:46.355Z,19.5
2022-10-28T10:03:58.984Z,20.1
2022-10-28T10:19:09.036Z,20.5
2022-10-28T10:34:19.302Z,21
2022-10-28T10:49:29.172Z,21.3
2022-10-28T11:04:38.984Z,21.6
2022-10-28T11:19:48.696Z,22
2022-10-28T11:34:58.383Z,22.3
2022-10-28T11:50:14.132Z,24
2022-10-28T12:05:23.202Z,24.4
2022-10-28T12:20:32.042Z,24.5
2022-10-28T12:35:41.315Z,24.4
2022-10-28T12:50:51.408Z,24.4
2022-10-28T13:06:01.129Z,24.8
2022-10-28T13:21:10.187Z,24.6
2022-10-28T13:36:19.499Z,23.7
2022-10-28T13:51:28.865Z,23.1
2022-10-28T14:06:37.803Z,22.7
2022-10-28T14:21:48.142Z,22.4
2022-10-28T14:36:57.656Z,22
2022-10-28T14:52:06.992Z,21.7
2022-10-28T15:07:16.395Z,21.5
2022-10-28T15:22:26.261Z,21.3
2022-10-28T15:37:38.202Z,21.2
2022-10-28T15:54:55.045Z,21.5
2022-10-28T16:10:05.387Z,20.8
2022-10-28T16:25:14.435Z,20.5
2022-10-28T16:40:50.182Z,20.3
2022-10-28T16:56:02.389Z,20.1
2022-10-28T17:11:12.245Z,20.2
2022-10-28T17:26:22.225Z,20.2
2022-10-28T17:41:32.262Z,19.8
2022-10-28T17:56:41.713Z,19.6
2022-10-28T18:11:51.941Z,19.5
2022-10-28T18:27:02.216Z,19.6
2022-10-28T18:42:12.351Z,19.8
2022-10-28T18:57:31.483Z,20
2022-10-28T19:12:42.957Z,20.1
2022-10-28T19:28:02.973Z,20.1
2022-10-28T19:43:12.425Z,20
2022-10-28T19:58:22.112Z,20
2022-10-28T20:13:31.661Z,19.9
2022-10-28T20:28:41.051Z,19.7
2022-10-28T20:43:50.277Z,19.5
2022-10-28T20:59:00.989Z,19.4
2022-10-28T21:14:11.241Z,19.2
2022-10-28T21:29:20.639Z,19.1
2022-10-28T21:44:29.817Z,19.3
2022-10-28T21:59:39.489Z,19.3
2022-10-28T22:14:49.230Z,19.5
2022-10-28T22:29:58.828Z,19
2022-10-28T22:45:08.254Z,18.9
2022-10-28T23:15:28.677Z,19.4
2022-10-28T23:30:38.210Z,19.2
2022-10-28T23:45:47.769Z,18.9
